Time;durP1;ratioP1;P1;durP2;ratioP2;P2;SDS_P1;SDS_P2;PMS_P1;PMS_P2;Temp;Humidity;BMP_temperature;BMP_pressure;BME280_temperature;BME280_humidity;BME280_pressure;Samples;Min_cycle;Max_cycle;Signal;HPM_P1;HPM_P2
2022/08/27 00:02:05;;;;;;;25.45;15.85;;;;;;;;;;5014117;28;20120;-79
2022/08/27 00:04:31;;;;;;;28.67;16.13;;;;;;;;;;5028218;28;20095;-78
2022/08/27 00:06:57;;;;;;;25.95;15.35;;;;;;;;;;5012707;28;20026;-80
2022/08/27 00:09:23;;;;;;;30.52;15.60;;;;;;;;;;5027239;28;20032;-78
2022/08/27 00:11:49;;;;;;;30.98;16.60;;;;;;;;;;5010789;28;20034;-79
2022/08/27 00:14:14;;;;;;;30.75;16.58;;;;;;;;;;5011541;28;20026;-79
2022/08/27 00:16:40;;;;;;;23.92;14.57;;;;;;;;;;5011208;28;20033;-78
2022/08/27 00:19:06;;;;;;;24.38;15.60;;;;;;;;;;5010434;28;20375;-78
2022/08/27 00:21:32;;;;;;;23.25;14.85;;;;;;;;;;5010626;28;20030;-78
2022/08/27 00:23:58;;;;;;;24.88;15.45;;;;;;;;;;5011197;28;20045;-78
2022/08/27 00:26:23;;;;;;;23.63;15.45;;;;;;;;;;5012198;28;20045;-78
2022/08/27 00:28:49;;;;;;;22.65;15.27;;;;;;;;;;5025811;28;20078;-79
2022/08/27 00:31:15;;;;;;;28.60;16.55;;;;;;;;;;5031404;28;20033;-78
2022/08/27 00:33:42;;;;;;;27.48;17.52;;;;;;;;;;5032198;28;20022;-78
2022/08/27 00:36:08;;;;;;;27.23;15.43;;;;;;;;;;5032281;28;20037;-78
2022/08/27 00:38:37;;;;;;;29.48;16.02;;;;;;;;;;5032563;28;20489;-78
2022/08/27 00:41:05;;;;;;;26.05;16.58;;;;;;;;;;5031393;28;20209;-78
2022/08/27 00:43:44;;;;;;;28.35;17.65;;;;;;;;;;5047457;28;20037;-78
2022/08/27 00:46:27;;;;;;;27.80;16.20;;;;;;;;;;5032226;28;20104;-78
2022/08/27 00:48:56;;;;;;;27.80;16.58;;;;;;;;;;5047037;28;20435;-79
2022/08/27 00:51:23;;;;;;;29.45;17.05;;;;;;;;;;5032075;28;20036;-80
2022/08/27 00:53:50;;;;;;;25.88;16.67;;;;;;;;;;5031650;28;20083;-78
2022/08/27 00:56:22;;;;;;;26.80;17.08;;;;;;;;;;5032679;28;20473;-79
2022/08/27 00:58:50;;;;;;;35.03;16.75;;;;;;;;;;5046766;28;20135;-78
2022/08/27 01:01:23;;;;;;;35.30;17.02;;;;;;;;;;5031736;28;20100;-79
2022/08/27 01:03:56;;;;;;;36.70;16.63;;;;;;;;;;5046972;28;20108;-79
2022/08/27 01:06:25;;;;;;;36.50;18.00;;;;;;;;;;5031696;28;20428;-79
2022/08/27 01:08:56;;;;;;;35.25;17.25;;;;;;;;;;5047080;28;20392;-76
2022/08/27 01:11:24;;;;;;;32.67;17.95;;;;;;;;;;5047066;28;20400;-80
2022/08/27 01:13:50;;;;;;;25.20;16.75;;;;;;;;;;5031175;28;20033;-78
2022/08/27 01:16:23;;;;;;;29.30;16.10;;;;;;;;;;5030335;28;20029;-78
2022/08/27 01:18:49;;;;;;;30.50;15.45;;;;;;;;;;5032130;28;20456;-78
2022/08/27 01:21:29;;;;;;;26.88;16.15;;;;;;;;;;5031580;28;20033;-78
2022/08/27 01:24:00;;;;;;;25.92;16.35;;;;;;;;;;5031183;28;20533;-78
2022/08/27 01:26:26;;;;;;;24.98;16.30;;;;;;;;;;5031372;28;20052;-78
2022/08/27 01:28:52;;;;;;;27.52;16.73;;;;;;;;;;5031488;28;20040;-78
2022/08/27 01:31:18;;;;;;;26.73;17.08;;;;;;;;;;5031984;28;20021;-79
2022/08/27 01:33:59;;;;;;;27.60;17.50;;;;;;;;;;5031733;28;20123;-79
2022/08/27 01:36:26;;;;;;;27.65;17.42;;;;;;;;;;5031631;28;20033;-78
2022/08/27 01:38:51;;;;;;;29.20;17.13;;;;;;;;;;5031283;28;20029;-78
2022/08/27 01:41:17;;;;;;;27.60;16.20;;;;;;;;;;5046674;28;20017;-78
2022/08/27 01:43:43;;;;;;;31.92;16.05;;;;;;;;;;5046221;28;20025;-78
2022/08/27 01:46:08;;;;;;;29.58;17.40;;;;;;;;;;5046581;28;20075;-78
2022/08/27 01:48:34;;;;;;;27.83;15.50;;;;;;;;;;5031060;28;20017;-79
2022/08/27 01:51:00;;;;;;;25.05;15.02;;;;;;;;;;5045866;28;20370;-78
2022/08/27 01:53:26;;;;;;;30.23;16.83;;;;;;;;;;5035042;28;20025;-79
2022/08/27 01:55:52;;;;;;;24.42;15.95;;;;;;;;;;5035605;28;20358;-78
2022/08/27 01:58:20;;;;;;;28.23;16.70;;;;;;;;;;5050453;28;20136;-78
2022/08/27 02:00:49;;;;;;;22.88;14.55;;;;;;;;;;5034619;28;20038;-79
2022/08/27 02:03:17;;;;;;;26.17;16.00;;;;;;;;;;5050817;28;20478;-78
2022/08/27 02:05:43;;;;;;;24.08;16.33;;;;;;;;;;5035484;28;20040;-78
2022/08/27 02:08:09;;;;;;;26.00;15.35;;;;;;;;;;5050502;28;20499;-79
2022/08/27 02:10:38;;;;;;;24.20;15.20;;;;;;;;;;5034476;28;20031;-78
2022/08/27 02:13:05;;;;;;;25.35;14.57;;;;;;;;;;5049812;28;20376;-79
2022/08/27 02:15:33;;;;;;;24.98;15.18;;;;;;;;;;5034706;28;20385;-79
2022/08/27 02:17:59;;;;;;;26.40;15.05;;;;;;;;;;5033274;28;20477;-78
2022/08/27 02:20:25;;;;;;;23.25;15.40;;;;;;;;;;5034571;28;20037;-78
2022/08/27 02:22:51;;;;;;;21.02;14.10;;;;;;;;;;5049556;28;20029;-78
2022/08/27 02:25:19;;;;;;;26.48;15.25;;;;;;;;;;5031651;28;20065;-80
2022/08/27 02:27:46;;;;;;;23.55;14.77;;;;;;;;;;5029837;28;20046;-80
2022/08/27 02:30:13;;;;;;;21.65;14.38;;;;;;;;;;5014918;28;20478;-78
2022/08/27 02:32:39;;;;;;;24.75;14.88;;;;;;;;;;5014593;28;20114;-78
2022/08/27 02:35:05;;;;;;;24.70;14.02;;;;;;;;;;5014684;28;20152;-78
2022/08/27 02:37:31;;;;;;;22.92;14.00;;;;;;;;;;5029605;28;20040;-79
2022/08/27 02:39:57;;;;;;;25.95;13.85;;;;;;;;;;5014046;28;20026;-78
2022/08/27 02:42:23;;;;;;;32.15;15.02;;;;;;;;;;5014115;28;20036;-78
2022/08/27 02:44:49;;;;;;;24.50;15.25;;;;;;;;;;5014083;28;20034;-78
2022/08/27 02:47:15;;;;;;;24.50;14.60;;;;;;;;;;5029537;28;20452;-79
2022/08/27 02:49:42;;;;;;;23.40;13.02;;;;;;;;;;5029470;28;20028;-79
2022/08/27 02:52:08;;;;;;;21.73;13.77;;;;;;;;;;5029544;28;20033;-78
2022/08/27 02:54:33;;;;;;;21.42;12.93;;;;;;;;;;5014448;28;20029;-78
2022/08/27 02:56:59;;;;;;;21.00;13.45;;;;;;;;;;5029113;28;20030;-78
2022/08/27 02:59:24;;;;;;;17.88;12.00;;;;;;;;;;5014779;28;20109;-79
2022/08/27 03:01:50;;;;;;;19.08;13.07;;;;;;;;;;5029446;28;20036;-78
2022/08/27 03:04:18;;;;;;;17.48;11.77;;;;;;;;;;5029297;28;20445;-78
2022/08/27 03:06:45;;;;;;;21.25;12.50;;;;;;;;;;5029308;28;20030;-78
2022/08/27 03:09:10;;;;;;;22.45;11.85;;;;;;;;;;5029083;28;20116;-79
2022/08/27 03:11:36;;;;;;;20.38;12.70;;;;;;;;;;5014138;28;20117;-80
2022/08/27 03:14:02;;;;;;;20.45;11.63;;;;;;;;;;5028792;28;20133;-78
2022/08/27 03:16:28;;;;;;;18.27;11.77;;;;;;;;;;5028330;28;20080;-78
2022/08/27 03:18:53;;;;;;;27.63;13.65;;;;;;;;;;5028708;28;20029;-78
2022/08/27 03:21:23;;;;;;;24.08;14.23;;;;;;;;;;5028612;28;20083;-78
2022/08/27 03:23:49;;;;;;;27.20;13.27;;;;;;;;;;5013301;28;20076;-77
2022/08/27 03:26:16;;;;;;;24.35;12.90;;;;;;;;;;5028087;28;20092;-80
2022/08/27 03:28:42;;;;;;;23.40;13.43;;;;;;;;;;5028159;28;20545;-78
2022/08/27 03:31:19;;;;;;;24.90;13.93;;;;;;;;;;5013625;28;20101;-79
2022/08/27 03:33:45;;;;;;;26.60;14.23;;;;;;;;;;5028764;28;20105;-78
2022/08/27 03:36:10;;;;;;;26.75;15.43;;;;;;;;;;5028647;28;20481;-78
2022/08/27 03:38:36;;;;;;;27.27;14.57;;;;;;;;;;5013746;28;20021;-80
2022/08/27 03:41:03;;;;;;;27.00;13.52;;;;;;;;;;5028452;28;20026;-79
2022/08/27 03:43:29;;;;;;;25.58;14.20;;;;;;;;;;5013075;28;20114;-78
2022/08/27 03:45:54;;;;;;;26.50;13.93;;;;;;;;;;5012261;28;20133;-78
2022/08/27 03:48:21;;;;;;;27.40;14.68;;;;;;;;;;5013076;28;20113;-79
2022/08/27 03:50:48;;;;;;;36.85;15.45;;;;;;;;;;5011869;28;20022;-78
2022/08/27 03:53:15;;;;;;;26.17;14.52;;;;;;;;;;5013045;28;20026;-78
2022/08/27 03:55:41;;;;;;;27.90;14.65;;;;;;;;;;5012992;28;20118;-79
2022/08/27 03:58:10;;;;;;;25.70;13.82;;;;;;;;;;5013134;28;20101;-79
2022/08/27 04:00:38;;;;;;;28.52;15.13;;;;;;;;;;5013206;28;20034;-78
2022/08/27 04:03:04;;;;;;;25.10;14.07;;;;;;;;;;5012986;28;20022;-78
2022/08/27 04:05:31;;;;;;;33.20;14.43;;;;;;;;;;5013321;28;20033;-79
2022/08/27 04:07:56;;;;;;;30.75;13.90;;;;;;;;;;5027640;28;20080;-79
2022/08/27 04:10:22;;;;;;;32.47;14.23;;;;;;;;;;5011522;28;20046;-78
2022/08/27 04:12:48;;;;;;;26.48;14.65;;;;;;;;;;5012714;28;20076;-80
2022/08/27 04:15:13;;;;;;;34.95;15.65;;;;;;;;;;5012746;28;20033;-78
2022/08/27 04:17:39;;;;;;;31.52;15.15;;;;;;;;;;5012769;28;20026;-79
2022/08/27 04:20:06;;;;;;;32.53;15.27;;;;;;;;;;5013114;28;20034;-79
2022/08/27 04:22:32;;;;;;;34.05;14.93;;;;;;;;;;5028497;28;20030;-79
2022/08/27 04:24:58;;;;;;;26.20;15.05;;;;;;;;;;5012666;28;20026;-79
2022/08/27 04:27:25;;;;;;;30.48;14.75;;;;;;;;;;5013009;28;20065;-79
2022/08/27 04:29:54;;;;;;;33.72;15.48;;;;;;;;;;5012198;28;20098;-78
2022/08/27 04:32:20;;;;;;;31.17;16.75;;;;;;;;;;5027694;28;20072;-77
2022/08/27 04:34:45;;;;;;;27.65;15.02;;;;;;;;;;5012477;28;20483;-77
2022/08/27 04:37:11;;;;;;;33.70;15.40;;;;;;;;;;5027976;28;20030;-79
2022/08/27 04:39:36;;;;;;;30.48;15.23;;;;;;;;;;5027310;28;20040;-79
2022/08/27 04:42:02;;;;;;;28.30;14.48;;;;;;;;;;5012575;28;20026;-78
2022/08/27 04:44:31;;;;;;;30.30;16.10;;;;;;;;;;5011353;28;20053;-79
2022/08/27 04:47:00;;;;;;;28.63;14.15;;;;;;;;;;5027568;28;20029;-78
2022/08/27 04:49:26;;;;;;;30.83;15.10;;;;;;;;;;5012243;28;20075;-79
2022/08/27 04:51:52;;;;;;;26.63;14.40;;;;;;;;;;5011049;28;20057;-79
2022/08/27 04:54:18;;;;;;;28.17;14.23;;;;;;;;;;5011796;28;20076;-79
2022/08/27 04:56:43;;;;;;;25.27;14.82;;;;;;;;;;5012106;28;20021;-79
2022/08/27 04:59:10;;;;;;;31.92;17.30;;;;;;;;;;5011970;28;20018;-79
2022/08/27 05:01:37;;;;;;;29.20;16.27;;;;;;;;;;5012291;28;20033;-79
2022/08/27 05:04:04;;;;;;;33.22;15.90;;;;;;;;;;5011184;28;20030;-78
2022/08/27 05:06:30;;;;;;;26.80;14.70;;;;;;;;;;5011833;28;20108;-78
2022/08/27 05:08:56;;;;;;;34.95;15.88;;;;;;;;;;5011034;28;20208;-80
2022/08/27 05:11:25;;;;;;;30.48;15.38;;;;;;;;;;5011576;28;20032;-77
2022/08/27 05:13:51;;;;;;;30.27;15.07;;;;;;;;;;5011594;28;20021;-77
2022/08/27 05:16:19;;;;;;;35.75;15.65;;;;;;;;;;5011563;28;20029;-79
2022/08/27 05:18:46;;;;;;;35.65;15.93;;;;;;;;;;5011355;28;20128;-78
2022/08/27 05:21:21;;;;;;;32.75;15.88;;;;;;;;;;5011510;28;20025;-78
2022/08/27 05:23:47;;;;;;;32.38;14.70;;;;;;;;;;5011423;28;20034;-78
2022/08/27 05:26:13;;;;;;;35.17;14.80;;;;;;;;;;5011648;28;20042;-79
2022/08/27 05:28:39;;;;;;;40.45;16.15;;;;;;;;;;5015815;28;20338;-79
2022/08/27 05:31:07;;;;;;;31.23;16.38;;;;;;;;;;5030853;28;20044;-78
2022/08/27 05:33:33;;;;;;;34.38;14.95;;;;;;;;;;5015724;28;20101;-78
2022/08/27 05:36:00;;;;;;;30.38;15.35;;;;;;;;;;5030552;28;20500;-79
2022/08/27 05:38:27;;;;;;;47.03;26.00;;;;;;;;;;5015383;28;20112;-80
2022/08/27 05:41:07;;;;;;;28.77;15.35;;;;;;;;;;5015482;28;20030;-78
2022/08/27 05:43:34;;;;;;;31.88;15.27;;;;;;;;;;5014986;28;20117;-79
2022/08/27 05:46:04;;;;;;;35.60;16.25;;;;;;;;;;5015039;28;20478;-79
2022/08/27 05:48:30;;;;;;;34.08;15.88;;;;;;;;;;5015474;28;20079;-79
2022/08/27 05:50:56;;;;;;;36.35;15.40;;;;;;;;;;5030082;28;20018;-79
2022/08/27 05:53:22;;;;;;;29.77;14.93;;;;;;;;;;5015313;28;20528;-79
2022/08/27 05:55:48;;;;;;;31.13;15.10;;;;;;;;;;5015081;28;20022;-79
2022/08/27 06:01:05;;;;;;;34.72;16.17;;;;;;;;;;5015668;28;20397;-79
2022/08/27 06:03:31;;;;;;;32.15;16.00;;;;;;;;;;5015106;28;20030;-78
2022/08/27 06:06:02;;;;;;;36.08;16.40;;;;;;;;;;5015076;28;20041;-79
2022/08/27 06:08:28;;;;;;;40.33;22.05;;;;;;;;;;5030833;28;20528;-77
2022/08/27 06:10:55;;;;;;;41.05;16.65;;;;;;;;;;5012841;28;20061;-78
2022/08/27 06:13:21;;;;;;;31.60;15.73;;;;;;;;;;5014967;28;20033;-79
2022/08/27 06:15:47;;;;;;;41.58;17.00;;;;;;;;;;5014537;28;20488;-80
2022/08/27 06:18:12;;;;;;;37.20;15.73;;;;;;;;;;5014509;28;20042;-79
2022/08/27 06:20:38;;;;;;;38.97;16.15;;;;;;;;;;5013521;28;20038;-79
2022/08/27 06:23:04;;;;;;;41.83;16.70;;;;;;;;;;5014707;28;20041;-77
2022/08/27 06:25:31;;;;;;;32.45;15.15;;;;;;;;;;5034703;28;20025;-80
2022/08/27 06:27:57;;;;;;;29.80;15.30;;;;;;;;;;5016246;28;20060;-78
2022/08/27 06:30:24;;;;;;;37.97;16.15;;;;;;;;;;5033055;28;20033;-79
2022/08/27 06:32:50;;;;;;;32.40;13.60;;;;;;;;;;5032633;28;20136;-80
2022/08/27 06:35:17;;;;;;;33.35;16.10;;;;;;;;;;5033989;28;20018;-80
2022/08/27 06:37:42;;;;;;;29.35;14.75;;;;;;;;;;5033656;28;20029;-80
2022/08/27 06:40:09;;;;;;;41.85;15.38;;;;;;;;;;5034306;28;20051;-78
2022/08/27 06:42:36;;;;;;;45.95;27.17;;;;;;;;;;5033011;28;20025;-79
2022/08/27 06:45:03;;;;;;;30.85;15.55;;;;;;;;;;5033829;28;20025;-79
2022/08/27 06:47:32;;;;;;;34.17;15.50;;;;;;;;;;5032689;28;20456;-76
2022/08/27 06:49:58;;;;;;;29.23;14.20;;;;;;;;;;5032295;28;20091;-79
2022/08/27 06:52:23;;;;;;;27.52;15.80;;;;;;;;;;5032496;28;20025;-80
2022/08/27 06:54:49;;;;;;;33.95;14.88;;;;;;;;;;5034422;28;20021;-79
2022/08/27 06:57:15;;;;;;;36.50;14.38;;;;;;;;;;5032470;28;20025;-80
2022/08/27 06:59:42;;;;;;;29.20;14.15;;;;;;;;;;5032139;28;20059;-79
2022/08/27 07:02:08;;;;;;;28.90;14.50;;;;;;;;;;5049303;28;20022;-79
2022/08/27 07:04:33;;;;;;;30.60;14.15;;;;;;;;;;5033483;28;20588;-79
2022/08/27 07:07:03;;;;;;;25.75;12.95;;;;;;;;;;5034303;28;20087;-79
2022/08/27 07:09:30;;;;;;;23.05;12.40;;;;;;;;;;5033537;28;20385;-79
2022/08/27 07:11:57;;;;;;;34.33;14.55;;;;;;;;;;5031926;28;20111;-79
2022/08/27 07:14:22;;;;;;;19.15;12.02;;;;;;;;;;5031931;28;20144;-79
2022/08/27 07:16:49;;;;;;;24.25;13.05;;;;;;;;;;5033375;28;20071;-80
2022/08/27 07:19:15;;;;;;;30.10;13.05;;;;;;;;;;5048838;28;20095;-80
2022/08/27 07:21:41;;;;;;;23.73;12.15;;;;;;;;;;5015465;28;20029;-80
2022/08/27 07:24:07;;;;;;;22.88;12.68;;;;;;;;;;5032384;28;20017;-79
2022/08/27 07:26:36;;;;;;;22.15;12.60;;;;;;;;;;5031845;28;20561;-78
2022/08/27 07:29:05;;;;;;;23.25;13.25;;;;;;;;;;5031661;28;20441;-80
2022/08/27 07:31:34;;;;;;;25.98;13.20;;;;;;;;;;4999450;28;20482;-78
2022/08/27 07:34:00;;;;;;;23.30;12.35;;;;;;;;;;5033226;28;20509;-78
2022/08/27 07:36:25;;;;;;;26.80;13.77;;;;;;;;;;5015363;28;20029;-80
2022/08/27 07:38:53;;;;;;;25.08;14.38;;;;;;;;;;5033284;28;20029;-80
2022/08/27 07:41:19;;;;;;;29.52;13.05;;;;;;;;;;5048505;28;20021;-78
2022/08/27 07:46:28;;;;;;;24.50;13.38;;;;;;;;;;5032928;28;20064;-78
2022/08/27 07:48:56;;;;;;;24.88;12.95;;;;;;;;;;5031095;28;20053;-78
2022/08/27 07:51:23;;;;;;;25.70;13.40;;;;;;;;;;5030885;28;20033;-79
2022/08/27 07:53:48;;;;;;;22.08;12.25;;;;;;;;;;5032547;28;20098;-79
2022/08/27 07:56:14;;;;;;;23.25;13.15;;;;;;;;;;5031703;28;20101;-79
2022/08/27 07:58:41;;;;;;;26.52;14.23;;;;;;;;;;5030717;28;20048;-78
2022/08/27 08:01:07;;;;;;;27.23;13.93;;;;;;;;;;5031115;28;20029;-79
2022/08/27 08:03:33;;;;;;;25.55;14.48;;;;;;;;;;5031014;28;20029;-80
2022/08/27 08:06:05;;;;;;;21.10;12.55;;;;;;;;;;5032523;28;20533;-79
2022/08/27 08:08:33;;;;;;;31.92;20.65;;;;;;;;;;5014036;28;20091;-78
2022/08/27 08:10:59;;;;;;;24.63;15.65;;;;;;;;;;5032174;28;20049;-78
2022/08/27 08:13:25;;;;;;;29.60;15.13;;;;;;;;;;5030842;28;20472;-79
2022/08/27 08:15:52;;;;;;;24.20;13.80;;;;;;;;;;5032070;28;20029;-80
2022/08/27 08:18:19;;;;;;;27.15;14.27;;;;;;;;;;5030599;28;20033;-79
2022/08/27 08:20:46;;;;;;;22.70;13.85;;;;;;;;;;5032034;28;20500;-80
2022/08/27 08:23:12;;;;;;;23.95;14.23;;;;;;;;;;5014717;28;20033;-80
2022/08/27 08:25:39;;;;;;;24.17;13.88;;;;;;;;;;5032429;28;20067;-80
2022/08/27 08:28:05;;;;;;;24.90;14.07;;;;;;;;;;5031626;28;20119;-78
2022/08/27 08:30:30;;;;;;;23.77;14.77;;;;;;;;;;5030509;28;20615;-79
2022/08/27 08:32:56;;;;;;;25.33;14.85;;;;;;;;;;5032051;28;20048;-78
2022/08/27 08:35:23;;;;;;;24.00;13.45;;;;;;;;;;5030862;28;20039;-79
2022/08/27 08:37:49;;;;;;;30.33;14.70;;;;;;;;;;5030292;28;20028;-79
2022/08/27 08:40:40;;;;;;;23.73;14.75;;;;;;;;;;5030578;28;20025;-78
2022/08/27 08:43:19;;;;;;;23.35;14.43;;;;;;;;;;5032096;28;20025;-79
2022/08/27 08:45:47;;;;;;;24.02;14.35;;;;;;;;;;5032204;28;20029;-78
2022/08/27 08:48:22;;;;;;;26.23;15.05;;;;;;;;;;5032045;28;20049;-79
2022/08/27 08:51:17;;;;;;;28.63;16.65;;;;;;;;;;5047103;28;20028;-79
2022/08/27 08:54:14;;;;;;;25.02;16.25;;;;;;;;;;5030363;28;20067;-78
2022/08/27 08:57:02;;;;;;;25.58;15.15;;;;;;;;;;5031243;28;20449;-78
2022/08/27 08:59:46;;;;;;;26.50;15.38;;;;;;;;;;5031952;28;20029;-79
2022/08/27 09:02:15;;;;;;;31.70;15.30;;;;;;;;;;5030260;28;20037;-78
2022/08/27 09:04:42;;;;;;;28.80;15.38;;;;;;;;;;5029834;28;20374;-80
2022/08/27 09:07:29;;;;;;;29.40;16.55;;;;;;;;;;5031345;28;20025;-78
2022/08/27 09:10:25;;;;;;;27.95;15.13;;;;;;;;;;5030176;28;20504;-78
2022/08/27 09:12:54;;;;;;;25.17;14.70;;;;;;;;;;5030435;28;20584;-78
2022/08/27 09:15:25;;;;;;;26.13;14.90;;;;;;;;;;5030398;28;20099;-79
2022/08/27 09:17:51;;;;;;;28.23;15.13;;;;;;;;;;5031103;28;20033;-78
2022/08/27 09:20:20;;;;;;;31.08;16.77;;;;;;;;;;5031593;28;20105;-80
2022/08/27 09:23:15;;;;;;;26.58;14.98;;;;;;;;;;5031117;28;20032;-79
2022/08/27 09:25:43;;;;;;;24.95;14.85;;;;;;;;;;5030227;28;20061;-79
2022/08/27 09:31:24;;;;;;;27.63;15.35;;;;;;;;;;5031603;28;20103;-79
2022/08/27 09:33:49;;;;;;;24.52;14.85;;;;;;;;;;5030013;28;20023;-79
2022/08/27 09:36:16;;;;;;;28.77;17.67;;;;;;;;;;5031683;28;20025;-79
2022/08/27 09:38:56;;;;;;;32.70;16.50;;;;;;;;;;5031688;28;20030;-78
2022/08/27 09:41:25;;;;;;;34.50;18.13;;;;;;;;;;5031267;28;20037;-79
2022/08/27 09:43:59;;;;;;;32.58;17.38;;;;;;;;;;5031208;28;20120;-79
2022/08/27 09:46:25;;;;;;;30.35;17.15;;;;;;;;;;5030364;28;20359;-79
2022/08/27 09:48:51;;;;;;;32.65;19.45;;;;;;;;;;5029247;28;20083;-79
2022/08/27 09:51:21;;;;;;;31.08;18.52;;;;;;;;;;5029765;28;20021;-79
2022/08/27 09:53:52;;;;;;;31.92;18.95;;;;;;;;;;5029833;28;20017;-81
2022/08/27 09:56:24;;;;;;;;;;;;;;;;;;5013734;28;20041;-79
2022/08/27 09:59:04;;;;;;;29.40;17.63;;;;;;;;;;5030944;28;19920;-80
2022/08/27 10:01:33;;;;;;;29.45;17.20;;;;;;;;;;5030746;28;20506;-80
2022/08/27 10:04:11;;;;;;;40.45;18.25;;;;;;;;;;5030804;28;20034;-79
2022/08/27 10:06:43;;;;;;;29.50;19.20;;;;;;;;;;5030070;28;20022;-79
2022/08/27 10:09:25;;;;;;;31.42;17.88;;;;;;;;;;5029637;28;20033;-79
2022/08/27 10:12:16;;;;;;;31.60;19.48;;;;;;;;;;5031099;28;20033;-79
2022/08/27 10:14:49;;;;;;;27.25;17.70;;;;;;;;;;5033365;28;20025;-79
2022/08/27 10:17:35;;;;;;;31.52;19.45;;;;;;;;;;5033045;28;20026;-79
2022/08/27 10:20:25;;;;;;;27.02;17.65;;;;;;;;;;5034143;28;20025;-79
2022/08/27 10:22:54;;;;;;;35.20;19.73;;;;;;;;;;5033451;28;20385;-80
2022/08/27 10:25:19;;;;;;;29.40;18.90;;;;;;;;;;5033434;28;20029;-79
2022/08/27 10:28:04;;;;;;;33.03;19.05;;;;;;;;;;5032757;28;20442;-79
2022/08/27 10:30:54;;;;;;;31.88;18.80;;;;;;;;;;5032647;28;20037;-79
2022/08/27 10:33:49;;;;;;;32.05;19.98;;;;;;;;;;5033587;28;20025;-80
2022/08/27 10:36:29;;;;;;;34.28;19.00;;;;;;;;;;5033954;28;20096;-79
2022/08/27 10:39:16;;;;;;;29.20;19.37;;;;;;;;;;5033973;28;20433;-78
2022/08/27 10:41:48;;;;;;;33.50;20.80;;;;;;;;;;5034022;28;20044;-78
2022/08/27 10:44:50;;;;;;;30.55;20.38;;;;;;;;;;5049102;28;20370;-79
2022/08/27 10:47:21;;;;;;;30.30;20.05;;;;;;;;;;5035072;28;20076;-79
2022/08/27 10:50:22;;;;;;;36.97;21.95;;;;;;;;;;5032853;28;20032;-80
2022/08/27 10:53:00;;;;;;;35.20;20.35;;;;;;;;;;5026208;28;20511;-78
2022/08/27 10:55:32;;;;;;;37.58;20.90;;;;;;;;;;5033453;28;20378;-79
2022/08/27 10:58:24;;;;;;;36.88;21.73;;;;;;;;;;5049867;28;20079;-79
2022/08/27 11:01:10;;;;;;;31.83;20.45;;;;;;;;;;5033503;28;20032;-78
2022/08/27 11:03:53;;;;;;;31.05;20.02;;;;;;;;;;5049245;28;20022;-79
2022/08/27 11:06:33;;;;;;;34.88;20.77;;;;;;;;;;5049383;28;20504;-79
2022/08/27 11:09:14;;;;;;;34.50;20.30;;;;;;;;;;5034280;28;20448;-79
2022/08/27 11:11:55;;;;;;;33.03;19.80;;;;;;;;;;5049737;28;20087;-79
2022/08/27 11:14:33;;;;;;;33.15;20.45;;;;;;;;;;5033716;28;20496;-80
2022/08/27 11:17:04;;;;;;;34.88;22.75;;;;;;;;;;5049533;28;20026;-80
2022/08/27 11:19:36;;;;;;;34.58;23.88;;;;;;;;;;5033873;28;20057;-77
2022/08/27 11:22:15;;;;;;;35.55;20.10;;;;;;;;;;5032230;28;20118;-79
2022/08/27 11:24:55;;;;;;;33.28;21.67;;;;;;;;;;5048630;28;20056;-79
2022/08/27 11:27:24;;;;;;;34.92;21.45;;;;;;;;;;5033649;28;20049;-80
2022/08/27 11:30:07;;;;;;;31.25;20.02;;;;;;;;;;5048334;28;20030;-78
2022/08/27 11:32:48;;;;;;;43.40;20.38;;;;;;;;;;5048075;28;20512;-79
2022/08/27 11:35:38;;;;;;;35.65;22.83;;;;;;;;;;5032855;28;20022;-80
2022/08/27 11:38:26;;;;;;;30.27;20.77;;;;;;;;;;5031920;28;20062;-78
2022/08/27 11:41:13;;;;;;;32.03;21.25;;;;;;;;;;5031093;28;20645;-79
2022/08/27 11:43:41;;;;;;;42.35;21.35;;;;;;;;;;5032274;28;20031;-80
2022/08/27 11:46:08;;;;;;;32.25;20.92;;;;;;;;;;5032819;28;20392;-78
2022/08/27 11:48:55;;;;;;;31.23;20.92;;;;;;;;;;5047710;28;20029;-79
2022/08/27 11:51:28;;;;;;;30.23;19.77;;;;;;;;;;5032601;28;20052;-80
2022/08/27 11:54:00;;;;;;;27.55;19.02;;;;;;;;;;5032881;28;20022;-78
2022/08/27 11:56:29;;;;;;;32.13;21.58;;;;;;;;;;5032787;28;20061;-79
2022/08/27 11:59:10;;;;;;;34.70;19.73;;;;;;;;;;5031062;28;20033;-80
2022/08/27 12:01:35;;;;;;;;;;;;;;;;;;5033043;28;20105;-79
2022/08/27 12:04:23;;;;;;;29.00;21.55;;;;;;;;;;5032847;28;20099;-80
2022/08/27 12:07:00;;;;;;;33.45;20.35;;;;;;;;;;5031466;28;20056;-81
2022/08/27 12:09:26;;;;;;;31.92;21.17;;;;;;;;;;5030793;28;20029;-79
2022/08/27 12:11:54;;;;;;;35.72;23.88;;;;;;;;;;5032168;28;20044;-79
2022/08/27 12:15:08;;;;;;;38.25;23.35;;;;;;;;;;5031426;28;20026;-81
2022/08/27 12:17:59;;;;;;;42.78;24.63;;;;;;;;;;5032522;28;20091;-80
2022/08/27 12:20:49;;;;;;;41.63;26.30;;;;;;;;;;5031985;28;20026;-78
2022/08/27 12:23:38;;;;;;;59.00;29.17;;;;;;;;;;5029753;28;20043;-80
2022/08/27 12:26:30;;;;;;;48.28;28.90;;;;;;;;;;5012424;28;20029;-78
2022/08/27 12:29:23;;;;;;;43.33;26.15;;;;;;;;;;5007173;28;20069;-79
2022/08/27 12:31:53;;;;;;;39.63;24.40;;;;;;;;;;5010413;28;20060;-79
2022/08/27 12:34:23;;;;;;;43.25;26.52;;;;;;;;;;5026997;28;20406;-80
2022/08/27 12:36:52;;;;;;;38.72;24.02;;;;;;;;;;5011635;28;20172;-80
2022/08/27 12:39:25;;;;;;;29.42;18.33;;;;;;;;;;5011841;28;20060;-78
2022/08/27 12:41:51;;;;;;;27.10;19.23;;;;;;;;;;5012213;28;20030;-78
2022/08/27 12:44:30;;;;;;;27.05;18.23;;;;;;;;;;5011661;28;20033;-79
2022/08/27 12:47:04;;;;;;;27.52;18.15;;;;;;;;;;5027227;28;20038;-79
2022/08/27 12:49:57;;;;;;;31.83;21.73;;;;;;;;;;5027810;28;20124;-79
2022/08/27 12:52:32;;;;;;;33.80;21.63;;;;;;;;;;5007501;28;20042;-78
2022/08/27 12:55:07;;;;;;;30.55;21.15;;;;;;;;;;5012385;28;20466;-79
2022/08/27 12:57:48;;;;;;;35.80;21.10;;;;;;;;;;5011608;28;20029;-79
2022/08/27 13:00:22;;;;;;;29.80;20.52;;;;;;;;;;5011968;28;20028;-81
2022/08/27 13:03:20;;;;;;;29.75;20.45;;;;;;;;;;5011401;28;20097;-78
2022/08/27 13:05:49;;;;;;;30.08;19.90;;;;;;;;;;4969961;28;20047;-77
2022/08/27 13:08:25;;;;;;;29.30;19.65;;;;;;;;;;4960072;28;20064;-79
2022/08/27 13:10:52;;;;;;;26.98;19.42;;;;;;;;;;5026493;28;20030;-80
2022/08/27 13:13:21;;;;;;;27.63;18.25;;;;;;;;;;5009993;28;20544;-78
2022/08/27 13:16:01;;;;;;;26.00;17.92;;;;;;;;;;5011815;28;20029;-78
2022/08/27 13:18:28;;;;;;;28.95;19.20;;;;;;;;;;5012090;28;20025;-81
2022/08/27 13:21:14;;;;;;;30.40;19.85;;;;;;;;;;5010263;28;20037;-79
2022/08/27 13:23:47;;;;;;;35.10;21.67;;;;;;;;;;5011306;28;20034;-78
2022/08/27 13:26:13;;;;;;;27.15;18.63;;;;;;;;;;5011446;28;20018;-79
2022/08/27 13:28:41;;;;;;;33.28;20.00;;;;;;;;;;5011845;28;20033;-77
2022/08/27 13:31:09;;;;;;;26.73;18.45;;;;;;;;;;5010624;28;20033;-79
2022/08/27 13:33:37;;;;;;;31.45;18.70;;;;;;;;;;5026713;28;20022;-77
2022/08/27 13:36:05;;;;;;;30.45;18.67;;;;;;;;;;5010775;28;20041;-79
2022/08/27 13:38:34;;;;;;;32.08;17.83;;;;;;;;;;5026555;28;20036;-79
2022/08/27 13:41:08;;;;;;;23.60;16.60;;;;;;;;;;5026262;28;20393;-79
2022/08/27 13:43:41;;;;;;;25.55;17.30;;;;;;;;;;5011180;28;20102;-79
2022/08/27 13:46:39;;;;;;;28.33;18.00;;;;;;;;;;5011107;28;20045;-79
2022/08/27 13:49:06;;;;;;;24.75;18.05;;;;;;;;;;5012428;28;20030;-79
2022/08/27 13:51:34;;;;;;;23.90;17.50;;;;;;;;;;5014845;28;20087;-79
2022/08/27 13:54:12;;;;;;;25.90;17.52;;;;;;;;;;5030489;28;20117;-79
2022/08/27 13:56:54;;;;;;;27.05;18.10;;;;;;;;;;5030167;28;20125;-80
2022/08/27 13:59:24;;;;;;;23.13;16.58;;;;;;;;;;5030150;28;20036;-79
2022/08/27 14:02:01;;;;;;;27.00;18.30;;;;;;;;;;5029977;28;20052;-79
2022/08/27 14:04:49;;;;;;;29.48;19.13;;;;;;;;;;5013437;28;20034;-79
2022/08/27 14:07:29;;;;;;;30.73;18.55;;;;;;;;;;5004172;28;20120;-79
2022/08/27 14:10:00;;;;;;;33.25;20.98;;;;;;;;;;5030125;28;20022;-79
2022/08/27 14:12:33;;;;;;;32.83;20.95;;;;;;;;;;5015132;28;20507;-79
2022/08/27 14:15:20;;;;;;;39.67;22.73;;;;;;;;;;5015297;28;20394;-79
2022/08/27 14:17:46;;;;;;;31.60;20.50;;;;;;;;;;5013275;28;20057;-79
2022/08/27 14:20:14;;;;;;;39.60;25.00;;;;;;;;;;5029366;28;20125;-79
2022/08/27 14:22:42;;;;;;;35.85;23.00;;;;;;;;;;5029271;28;20034;-79
2022/08/27 14:25:08;;;;;;;40.13;25.52;;;;;;;;;;5013623;28;20038;-79
2022/08/27 14:27:35;;;;;;;38.33;22.58;;;;;;;;;;5014044;28;20538;-80
2022/08/27 14:30:02;;;;;;;30.30;21.25;;;;;;;;;;5014545;28;20026;-79
2022/08/27 14:32:27;;;;;;;31.23;20.75;;;;;;;;;;4996944;28;20482;-80
2022/08/27 14:34:53;;;;;;;28.63;19.45;;;;;;;;;;5014369;28;20022;-79
2022/08/27 14:37:18;;;;;;;35.28;22.13;;;;;;;;;;5014609;28;20474;-79
2022/08/27 14:39:44;;;;;;;65.93;27.27;;;;;;;;;;5029749;28;20033;-78
2022/08/27 14:42:10;;;;;;;53.28;25.50;;;;;;;;;;5014166;28;20030;-78
2022/08/27 14:44:37;;;;;;;31.17;20.63;;;;;;;;;;5012976;28;20030;-79
2022/08/27 14:47:05;;;;;;;29.02;19.33;;;;;;;;;;5014235;28;20105;-79
2022/08/27 14:49:33;;;;;;;26.02;18.63;;;;;;;;;;5014501;28;20021;-80